sensor_id;sensor_type;location;lat;lon;timestamp;temperature;humidity
2543;DHT22;1116;51.502;7.414;2023-11-19T00:02:26;11.30;99.90
2543;DHT22;1116;51.502;7.414;2023-11-19T00:04:56;11.30;99.90
2543;DHT22;1116;51.502;7.414;2023-11-19T00:07:29;11.30;99.90
2543;DHT22;1116;51.502;7.414;2023-11-19T00:10:02;11.30;99.90
2543;DHT22;1116;51.502;7.414;2023-11-19T00:12:38;11.30;99.90
2543;DHT22;1116;51.502;7.414;2023-11-19T00:15:09;11.40;99.90
2543;DHT22;1116;51.502;7.414;2023-11-19T00:17:39;11.50;99.90
2543;DHT22;1116;51.502;7.414;2023-11-19T00:20:12;11.50;99.90
2543;DHT22;1116;51.502;7.414;2023-11-19T00:22:45;11.60;99.90
2543;DHT22;1116;51.502;7.414;2023-11-19T00:25:19;11.70;99.90
2543;DHT22;1116;51.502;7.414;2023-11-19T00:27:50;11.70;99.90
2543;DHT22;1116;51.502;7.414;2023-11-19T00:30:21;11.70;99.90
2543;DHT22;1116;51.502;7.414;2023-11-19T00:32:50;11.80;99.90
2543;DHT22;1116;51.502;7.414;2023-11-19T00:35:20;11.90;99.90
2543;DHT22;1116;51.502;7.414;2023-11-19T00:37:53;12.00;99.90
2543;DHT22;1116;51.502;7.414;2023-11-19T00:40:24;12.00;99.90
2543;DHT22;1116;51.502;7.414;2023-11-19T00:42:54;12.00;99.90
2543;DHT22;1116;51.502;7.414;2023-11-19T00:45:27;12.00;99.90
2543;DHT22;1116;51.502;7.414;2023-11-19T00:47:57;12.00;99.90
2543;DHT22;1116;51.502;7.414;2023-11-19T00:50:27;12.10;99.90
2543;DHT22;1116;51.502;7.414;2023-11-19T00:53:04;12.10;99.90
2543;DHT22;1116;51.502;7.414;2023-11-19T00:55:34;12.20;99.90
2543;DHT22;1116;51.502;7.414;2023-11-19T00:58:13;12.30;99.90
2543;DHT22;1116;51.502;7.414;2023-11-19T01:00:45;12.30;99.90
2543;DHT22;1116;51.502;7.414;2023-11-19T01:03:14;12.30;99.90
2543;DHT22;1116;51.502;7.414;2023-11-19T01:05:45;12.30;99.90
2543;DHT22;1116;51.502;7.414;2023-11-19T01:08:19;12.40;99.90
2543;DHT22;1116;51.502;7.414;2023-11-19T01:10:49;12.40;99.90
2543;DHT22;1116;51.502;7.414;2023-11-19T01:13:19;12.50;99.90
2543;DHT22;1116;51.502;7.414;2023-11-19T01:15:49;12.60;99.90
2543;DHT22;1116;51.502;7.414;2023-11-19T01:18:19;12.60;99.90
2543;DHT22;1116;51.502;7.414;2023-11-19T01:20:49;12.70;99.90
2543;DHT22;1116;51.502;7.414;2023-11-19T01:23:22;12.70;99.90
2543;DHT22;1116;51.502;7.414;2023-11-19T01:25:52;12.80;99.90
2543;DHT22;1116;51.502;7.414;2023-11-19T01:28:22;12.80;99.90
2543;DHT22;1116;51.502;7.414;2023-11-19T01:30:52;12.80;99.90
2543;DHT22;1116;51.502;7.414;2023-11-19T01:33:22;12.80;99.90
2543;DHT22;1116;51.502;7.414;2023-11-19T01:35:52;12.90;99.90
2543;DHT22;1116;51.502;7.414;2023-11-19T01:38:25;12.90;99.90
2543;DHT22;1116;51.502;7.414;2023-11-19T01:40:56;12.90;99.90
2543;DHT22;1116;51.502;7.414;2023-11-19T01:43:33;12.90;99.90
2543;DHT22;1116;51.502;7.414;2023-11-19T01:46:05;13.00;99.90
2543;DHT22;1116;51.502;7.414;2023-11-19T01:48:40;13.00;99.90
2543;DHT22;1116;51.502;7.414;2023-11-19T01:51:12;13.00;99.90
2543;DHT22;1116;51.502;7.414;2023-11-19T01:53:46;13.00;99.90
2543;DHT22;1116;51.502;7.414;2023-11-19T01:56:16;13.00;99.90
2543;DHT22;1116;51.502;7.414;2023-11-19T01:58:48;13.00;99.90
2543;DHT22;1116;51.502;7.414;2023-11-19T02:01:18;13.10;99.90
2543;DHT22;1116;51.502;7.414;2023-11-19T02:03:48;13.10;99.90
2543;DHT22;1116;51.502;7.414;2023-11-19T02:06:19;13.10;99.90
2543;DHT22;1116;51.502;7.414;2023-11-19T02:08:52;13.10;99.90
2543;DHT22;1116;51.502;7.414;2023-11-19T02:11:22;13.10;99.90
2543;DHT22;1116;51.502;7.414;2023-11-19T02:13:56;13.10;99.90
2543;DHT22;1116;51.502;7.414;2023-11-19T02:16:26;13.30;99.90
2543;DHT22;1116;51.502;7.414;2023-11-19T02:18:57;13.10;99.90
2543;DHT22;1116;51.502;7.414;2023-11-19T02:21:26;13.00;99.90
2543;DHT22;1116;51.502;7.414;2023-11-19T02:23:59;13.00;99.90
2543;DHT22;1116;51.502;7.414;2023-11-19T02:26:38;13.10;99.90
2543;DHT22;1116;51.502;7.414;2023-11-19T02:29:11;13.10;99.90
2543;DHT22;1116;51.502;7.414;2023-11-19T02:31:42;13.10;99.90
2543;DHT22;1116;51.502;7.414;2023-11-19T02:34:12;13.20;99.90
2543;DHT22;1116;51.502;7.414;2023-11-19T02:36:43;13.20;99.90
2543;DHT22;1116;51.502;7.414;2023-11-19T02:39:14;13.10;99.90
2543;DHT22;1116;51.502;7.414;2023-11-19T02:41:48;13.20;99.90
2543;DHT22;1116;51.502;7.414;2023-11-19T02:44:22;13.20;99.90
2543;DHT22;1116;51.502;7.414;2023-11-19T02:46:55;13.20;99.90
2543;DHT22;1116;51.502;7.414;2023-11-19T02:49:26;13.20;99.90
2543;DHT22;1116;51.502;7.414;2023-11-19T02:52:17;13.20;99.90
2543;DHT22;1116;51.502;7.414;2023-11-19T02:54:47;13.20;99.90
2543;DHT22;1116;51.502;7.414;2023-11-19T02:57:21;13.20;99.90
2543;DHT22;1116;51.502;7.414;2023-11-19T02:59:54;13.20;99.90
2543;DHT22;1116;51.502;7.414;2023-11-19T03:02:26;13.20;99.90
2543;DHT22;1116;51.502;7.414;2023-11-19T03:05:01;13.20;99.90
2543;DHT22;1116;51.502;7.414;2023-11-19T03:07:36;13.20;99.90
2543;DHT22;1116;51.502;7.414;2023-11-19T03:10:07;13.20;99.90
2543;DHT22;1116;51.502;7.414;2023-11-19T03:12:43;13.30;99.90
2543;DHT22;1116;51.502;7.414;2023-11-19T03:15:16;13.30;99.90
2543;DHT22;1116;51.502;7.414;2023-11-19T03:17:48;13.30;99.90
2543;DHT22;1116;51.502;7.414;2023-11-19T03:20:22;13.30;99.90
2543;DHT22;1116;51.502;7.414;2023-11-19T03:22:54;13.30;99.90
2543;DHT22;1116;51.502;7.414;2023-11-19T03:25:25;13.30;99.90
2543;DHT22;1116;51.502;7.414;2023-11-19T03:28:00;13.30;99.90
2543;DHT22;1116;51.502;7.414;2023-11-19T03:30:34;13.30;99.90
2543;DHT22;1116;51.502;7.414;2023-11-19T03:33:05;13.30;99.90
2543;DHT22;1116;51.502;7.414;2023-11-19T03:35:35;13.40;99.90
2543;DHT22;1116;51.502;7.414;2023-11-19T03:38:05;13.40;99.90
2543;DHT22;1116;51.502;7.414;2023-11-19T03:40:35;13.40;99.90
2543;DHT22;1116;51.502;7.414;2023-11-19T03:43:06;13.40;99.90
2543;DHT22;1116;51.502;7.414;2023-11-19T03:45:39;13.40;99.90
2543;DHT22;1116;51.502;7.414;2023-11-19T03:48:09;13.40;99.90
2543;DHT22;1116;51.502;7.414;2023-11-19T03:50:39;13.40;99.90
2543;DHT22;1116;51.502;7.414;2023-11-19T03:53:09;13.40;99.90
2543;DHT22;1116;51.502;7.414;2023-11-19T03:55:41;13.40;99.90
2543;DHT22;1116;51.502;7.414;2023-11-19T03:58:12;13.40;99.90
2543;DHT22;1116;51.502;7.414;2023-11-19T04:00:44;13.30;99.90
2543;DHT22;1116;51.502;7.414;2023-11-19T04:03:14;13.30;99.90
2543;DHT22;1116;51.502;7.414;2023-11-19T04:05:46;13.20;99.90
2543;DHT22;1116;51.502;7.414;2023-11-19T04:08:16;13.20;99.90
2543;DHT22;1116;51.502;7.414;2023-11-19T04:10:47;13.20;99.90
2543;DHT22;1116;51.502;7.414;2023-11-19T04:13:17;13.10;99.90
2543;DHT22;1116;51.502;7.414;2023-11-19T04:15:49;13.10;99.90
2543;DHT22;1116;51.502;7.414;2023-11-19T04:18:19;13.10;99.90
2543;DHT22;1116;51.502;7.414;2023-11-19T04:20:49;13.00;99.90
2543;DHT22;1116;51.502;7.414;2023-11-19T04:23:19;13.00;99.90
2543;DHT22;1116;51.502;7.414;2023-11-19T04:25:49;13.00;99.90
2543;DHT22;1116;51.502;7.414;2023-11-19T04:28:19;13.00;99.90
2543;DHT22;1116;51.502;7.414;2023-11-19T04:30:51;12.90;99.90
2543;DHT22;1116;51.502;7.414;2023-11-19T04:33:21;12.90;99.90
2543;DHT22;1116;51.502;7.414;2023-11-19T04:35:52;12.90;99.90
2543;DHT22;1116;51.502;7.414;2023-11-19T04:38:21;12.90;99.90
2543;DHT22;1116;51.502;7.414;2023-11-19T04:40:53;12.50;99.90
2543;DHT22;1116;51.502;7.414;2023-11-19T04:43:24;13.30;99.90
2543;DHT22;1116;51.502;7.414;2023-11-19T04:45:56;12.90;99.90
2543;DHT22;1116;51.502;7.414;2023-11-19T04:48:27;12.90;99.90
2543;DHT22;1116;51.502;7.414;2023-11-19T04:51:08;12.90;99.90
2543;DHT22;1116;51.502;7.414;2023-11-19T04:53:39;12.80;99.90
2543;DHT22;1116;51.502;7.414;2023-11-19T04:56:10;12.80;99.90
2543;DHT22;1116;51.502;7.414;2023-11-19T04:58:40;12.90;99.90
2543;DHT22;1116;51.502;7.414;2023-11-19T05:01:16;12.80;99.90
2543;DHT22;1116;51.502;7.414;2023-11-19T05:03:46;12.80;99.90
2543;DHT22;1116;51.502;7.414;2023-11-19T05:06:16;12.80;99.90
2543;DHT22;1116;51.502;7.414;2023-11-19T05:08:46;12.80;99.90
2543;DHT22;1116;51.502;7.414;2023-11-19T05:11:16;12.70;99.90
2543;DHT22;1116;51.502;7.414;2023-11-19T05:13:47;12.70;99.90
2543;DHT22;1116;51.502;7.414;2023-11-19T05:16:19;12.70;99.90
2543;DHT22;1116;51.502;7.414;2023-11-19T05:18:49;12.80;99.90
2543;DHT22;1116;51.502;7.414;2023-11-19T05:21:19;12.80;99.90
2543;DHT22;1116;51.502;7.414;2023-11-19T05:23:49;12.80;99.90
2543;DHT22;1116;51.502;7.414;2023-11-19T05:26:19;12.80;99.90
2543;DHT22;1116;51.502;7.414;2023-11-19T05:28:50;12.80;99.90
2543;DHT22;1116;51.502;7.414;2023-11-19T05:31:23;12.70;99.90
2543;DHT22;1116;51.502;7.414;2023-11-19T05:33:53;12.70;99.90
2543;DHT22;1116;51.502;7.414;2023-11-19T05:36:23;12.80;99.90
2543;DHT22;1116;51.502;7.414;2023-11-19T05:38:54;12.80;99.90
2543;DHT22;1116;51.502;7.414;2023-11-19T05:41:24;12.80;99.90
2543;DHT22;1116;51.502;7.414;2023-11-19T05:43:54;12.80;99.90
2543;DHT22;1116;51.502;7.414;2023-11-19T05:46:27;12.80;99.90
2543;DHT22;1116;51.502;7.414;2023-11-19T05:48:57;12.70;99.90
2543;DHT22;1116;51.502;7.414;2023-11-19T05:51:27;12.70;99.90
2543;DHT22;1116;51.502;7.414;2023-11-19T05:53:57;12.70;99.90
2543;DHT22;1116;51.502;7.414;2023-11-19T05:56:27;12.70;99.90
2543;DHT22;1116;51.502;7.414;2023-11-19T05:58:59;12.70;99.90
2543;DHT22;1116;51.502;7.414;2023-11-19T06:01:36;12.80;99.90
2543;DHT22;1116;51.502;7.414;2023-11-19T06:04:08;12.80;99.90
2543;DHT22;1116;51.502;7.414;2023-11-19T06:06:39;12.90;99.90
2543;DHT22;1116;51.502;7.414;2023-11-19T06:09:09;12.90;99.90
2543;DHT22;1116;51.502;7.414;2023-11-19T06:11:40;12.90;99.90
2543;DHT22;1116;51.502;7.414;2023-11-19T06:14:11;13.20;99.90
2543;DHT22;1116;51.502;7.414;2023-11-19T06:16:51;12.90;99.90
2543;DHT22;1116;51.502;7.414;2023-11-19T06:19:21;12.90;99.90
2543;DHT22;1116;51.502;7.414;2023-11-19T06:21:56;12.90;99.90
2543;DHT22;1116;51.502;7.414;2023-11-19T06:24:26;12.80;99.90
2543;DHT22;1116;51.502;7.414;2023-11-19T06:27:00;12.80;99.90
2543;DHT22;1116;51.502;7.414;2023-11-19T06:29:30;12.80;99.90
2543;DHT22;1116;51.502;7.414;2023-11-19T06:32:03;12.70;99.90
2543;DHT22;1116;51.502;7.414;2023-11-19T06:34:38;12.80;99.90
2543;DHT22;1116;51.502;7.414;2023-11-19T06:37:08;12.80;99.90
2543;DHT22;1116;51.502;7.414;2023-11-19T06:39:38;12.70;99.90
2543;DHT22;1116;51.502;7.414;2023-11-19T06:42:08;12.60;99.90
2543;DHT22;1116;51.502;7.414;2023-11-19T06:44:38;12.60;99.90
2543;DHT22;1116;51.502;7.414;2023-11-19T06:47:11;12.60;99.90
2543;DHT22;1116;51.502;7.414;2023-11-19T06:49:44;12.80;99.90
2543;DHT22;1116;51.502;7.414;2023-11-19T06:52:14;12.60;99.90
2543;DHT22;1116;51.502;7.414;2023-11-19T06:54:43;12.70;99.90
2543;DHT22;1116;51.502;7.414;2023-11-19T06:57:14;12.60;99.90
2543;DHT22;1116;51.502;7.414;2023-11-19T06:59:46;12.60;99.90
2543;DHT22;1116;51.502;7.414;2023-11-19T07:02:19;12.60;99.90
2543;DHT22;1116;51.502;7.414;2023-11-19T07:04:52;12.60;99.90
2543;DHT22;1116;51.502;7.414;2023-11-19T07:07:22;12.60;99.90
2543;DHT22;1116;51.502;7.414;2023-11-19T07:09:53;12.60;99.90
2543;DHT22;1116;51.502;7.414;2023-11-19T07:12:23;12.50;99.90
2543;DHT22;1116;51.502;7.414;2023-11-19T07:14:53;12.60;99.90
2543;DHT22;1116;51.502;7.414;2023-11-19T07:17:26;12.60;99.90
2543;DHT22;1116;51.502;7.414;2023-11-19T07:19:58;12.50;99.90
2543;DHT22;1116;51.502;7.414;2023-11-19T07:22:29;12.60;99.90
2543;DHT22;1116;51.502;7.414;2023-11-19T07:25:01;12.70;99.90
2543;DHT22;1116;51.502;7.414;2023-11-19T07:27:31;12.50;99.90
2543;DHT22;1116;51.502;7.414;2023-11-19T07:30:00;12.60;99.90
2543;DHT22;1116;51.502;7.414;2023-11-19T07:32:33;12.60;99.90
2543;DHT22;1116;51.502;7.414;2023-11-19T07:35:08;12.60;99.90
2543;DHT22;1116;51.502;7.414;2023-11-19T07:37:39;12.90;99.90
2543;DHT22;1116;51.502;7.414;2023-11-19T07:40:11;12.70;99.90
2543;DHT22;1116;51.502;7.414;2023-11-19T07:42:41;12.60;99.90
2543;DHT22;1116;51.502;7.414;2023-11-19T07:45:11;12.70;99.90
2543;DHT22;1116;51.502;7.414;2023-11-19T07:47:43;12.70;99.90
2543;DHT22;1116;51.502;7.414;2023-11-19T07:50:14;12.70;99.90
2543;DHT22;1116;51.502;7.414;2023-11-19T07:52:46;12.80;99.90
2543;DHT22;1116;51.502;7.414;2023-11-19T07:55:16;12.70;99.90
2543;DHT22;1116;51.502;7.414;2023-11-19T07:57:46;12.80;99.90
2543;DHT22;1116;51.502;7.414;2023-11-19T08:00:17;12.70;99.90
2543;DHT22;1116;51.502;7.414;2023-11-19T08:02:49;12.70;99.90
2543;DHT22;1116;51.502;7.414;2023-11-19T08:05:19;12.70;99.90
2543;DHT22;1116;51.502;7.414;2023-11-19T08:07:51;12.70;99.90
2543;DHT22;1116;51.502;7.414;2023-11-19T08:10:21;12.70;99.90
2543;DHT22;1116;51.502;7.414;2023-11-19T08:12:51;12.60;99.90
2543;DHT22;1116;51.502;7.414;2023-11-19T08:15:21;12.60;99.90
2543;DHT22;1116;51.502;7.414;2023-11-19T08:17:57;12.60;99.90
2543;DHT22;1116;51.502;7.414;2023-11-19T08:20:29;12.60;99.90
2543;DHT22;1116;51.502;7.414;2023-11-19T08:23:09;12.60;99.90
2543;DHT22;1116;51.502;7.414;2023-11-19T08:25:40;12.60;99.90
2543;DHT22;1116;51.502;7.414;2023-11-19T08:28:10;12.60;99.90
2543;DHT22;1116;51.502;7.414;2023-11-19T08:30:40;12.70;99.90
2543;DHT22;1116;51.502;7.414;2023-11-19T08:33:13;12.70;99.90
2543;DHT22;1116;51.502;7.414;2023-11-19T08:35:44;12.80;99.90
2543;DHT22;1116;51.502;7.414;2023-11-19T08:38:14;12.80;99.90
2543;DHT22;1116;51.502;7.414;2023-11-19T08:40:57;12.80;99.90
2543;DHT22;1116;51.502;7.414;2023-11-19T08:43:28;12.80;99.90
2543;DHT22;1116;51.502;7.414;2023-11-19T08:45:59;12.80;99.90
2543;DHT22;1116;51.502;7.414;2023-11-19T08:48:31;12.80;99.90
2543;DHT22;1116;51.502;7.414;2023-11-19T08:51:01;12.90;99.90
2543;DHT22;1116;51.502;7.414;2023-11-19T08:53:31;12.90;99.90
2543;DHT22;1116;51.502;7.414;2023-11-19T08:56:01;12.90;99.90
2543;DHT22;1116;51.502;7.414;2023-11-19T08:58:32;13.00;99.90
2543;DHT22;1116;51.502;7.414;2023-11-19T09:01:02;13.00;99.90
2543;DHT22;1116;51.502;7.414;2023-11-19T09:03:35;13.00;99.90
2543;DHT22;1116;51.502;7.414;2023-11-19T09:06:08;13.10;99.90
2543;DHT22;1116;51.502;7.414;2023-11-19T09:08:39;13.00;99.90
2543;DHT22;1116;51.502;7.414;2023-11-19T09:11:09;13.10;99.90
2543;DHT22;1116;51.502;7.414;2023-11-19T09:13:42;13.10;99.90
2543;DHT22;1116;51.502;7.414;2023-11-19T09:16:12;13.10;99.90
2543;DHT22;1116;51.502;7.414;2023-11-19T09:18:45;13.10;99.90
2543;DHT22;1116;51.502;7.414;2023-11-19T09:21:15;13.10;99.90
2543;DHT22;1116;51.502;7.414;2023-11-19T09:23:45;13.10;99.90
2543;DHT22;1116;51.502;7.414;2023-11-19T09:26:16;13.00;99.90
2543;DHT22;1116;51.502;7.414;2023-11-19T09:28:46;12.90;99.90
2543;DHT22;1116;51.502;7.414;2023-11-19T09:31:17;12.50;99.90
2543;DHT22;1116;51.502;7.414;2023-11-19T09:33:49;12.90;99.90
2543;DHT22;1116;51.502;7.414;2023-11-19T09:36:19;13.00;99.90
2543;DHT22;1116;51.502;7.414;2023-11-19T09:38:49;12.60;99.90
2543;DHT22;1116;51.502;7.414;2023-11-19T09:41:19;13.10;99.90
2543;DHT22;1116;51.502;7.414;2023-11-19T09:43:50;13.20;99.90
2543;DHT22;1116;51.502;7.414;2023-11-19T09:46:21;13.20;99.90
2543;DHT22;1116;51.502;7.414;2023-11-19T09:48:55;13.30;99.90
2543;DHT22;1116;51.502;7.414;2023-11-19T09:51:26;13.30;99.90
2543;DHT22;1116;51.502;7.414;2023-11-19T09:53:56;13.30;99.90
2543;DHT22;1116;51.502;7.414;2023-11-19T09:56:27;13.40;99.90
2543;DHT22;1116;51.502;7.414;2023-11-19T09:58:57;13.40;99.90
2543;DHT22;1116;51.502;7.414;2023-11-19T10:01:29;13.50;99.90
2543;DHT22;1116;51.502;7.414;2023-11-19T10:04:02;13.50;99.90
2543;DHT22;1116;51.502;7.414;2023-11-19T10:06:32;13.50;99.90
2543;DHT22;1116;51.502;7.414;2023-11-19T10:09:02;13.40;99.90
2543;DHT22;1116;51.502;7.414;2023-11-19T10:11:35;13.50;99.90
2543;DHT22;1116;51.502;7.414;2023-11-19T10:14:05;13.50;99.90
2543;DHT22;1116;51.502;7.414;2023-11-19T10:16:35;13.50;95.30
2543;DHT22;1116;51.502;7.414;2023-11-19T10:19:07;13.50;90.90
2543;DHT22;1116;51.502;7.414;2023-11-19T10:21:38;13.60;85.70
2543;DHT22;1116;51.502;7.414;2023-11-19T10:24:08;13.80;80.20
2543;DHT22;1116;51.502;7.414;2023-11-19T10:26:38;13.80;65.80
2543;DHT22;1116;51.502;7.414;2023-11-19T10:29:08;13.70;65.80
2543;DHT22;1116;51.502;7.414;2023-11-19T10:31:38;13.70;61.20
2543;DHT22;1116;51.502;7.414;2023-11-19T10:34:24;13.70;64.10
2543;DHT22;1116;51.502;7.414;2023-11-19T10:36:55;13.70;59.20
2543;DHT22;1116;51.502;7.414;2023-11-19T10:42:18;13.60;57.40
2543;DHT22;1116;51.502;7.414;2023-11-19T10:44:48;14.00;56.90
2543;DHT22;1116;51.502;7.414;2023-11-19T10:47:19;13.80;57.20
2543;DHT22;1116;51.502;7.414;2023-11-19T10:49:55;13.60;54.60
2543;DHT22;1116;51.502;7.414;2023-11-19T10:52:25;13.70;54.70
2543;DHT22;1116;51.502;7.414;2023-11-19T10:55:00;14.20;55.30
2543;DHT22;1116;51.502;7.414;2023-11-19T10:57:36;13.70;49.30
2543;DHT22;1116;51.502;7.414;2023-11-19T11:00:12;13.60;50.30
2543;DHT22;1116;51.502;7.414;2023-11-19T11:02:50;13.70;50.10
2543;DHT22;1116;51.502;7.414;2023-11-19T11:05:32;13.70;50.60
2543;DHT22;1116;51.502;7.414;2023-11-19T11:08:15;14.10;49.20
2543;DHT22;1116;51.502;7.414;2023-11-19T11:13:04;13.80;50.80
2543;DHT22;1116;51.502;7.414;2023-11-19T11:15:12;13.70;46.90
2543;DHT22;1116;51.502;7.414;2023-11-19T11:17:44;13.80;46.40
2543;DHT22;1116;51.502;7.414;2023-11-19T11:20:14;13.70;45.50
2543;DHT22;1116;51.502;7.414;2023-11-19T11:22:57;13.70;44.60
2543;DHT22;1116;51.502;7.414;2023-11-19T11:25:39;13.70;45.80
2543;DHT22;1116;51.502;7.414;2023-11-19T11:28:21;13.70;45.50
2543;DHT22;1116;51.502;7.414;2023-11-19T11:31:20;13.70;45.50
2543;DHT22;1116;51.502;7.414;2023-11-19T11:36:53;13.70;44.70
2543;DHT22;1116;51.502;7.414;2023-11-19T11:39:30;13.80;44.00
2543;DHT22;1116;51.502;7.414;2023-11-19T11:42:30;13.80;44.50
2543;DHT22;1116;51.502;7.414;2023-11-19T11:45:02;13.80;44.50
2543;DHT22;1116;51.502;7.414;2023-11-19T11:48:09;13.70;41.60
2543;DHT22;1116;51.502;7.414;2023-11-19T11:50:51;13.70;44.80
2543;DHT22;1116;51.502;7.414;2023-11-19T11:53:23;13.90;44.40
2543;DHT22;1116;51.502;7.414;2023-11-19T11:55:56;13.80;43.30
2543;DHT22;1116;51.502;7.414;2023-11-19T11:58:32;13.90;44.80
2543;DHT22;1116;51.502;7.414;2023-11-19T12:01:15;14.10;45.40
2543;DHT22;1116;51.502;7.414;2023-11-19T12:03:50;14.10;37.70
2543;DHT22;1116;51.502;7.414;2023-11-19T12:06:23;14.20;40.00
2543;DHT22;1116;51.502;7.414;2023-11-19T12:08:53;14.30;37.40
2543;DHT22;1116;51.502;7.414;2023-11-19T12:11:31;14.30;35.60
2543;DHT22;1116;51.502;7.414;2023-11-19T12:14:04;14.40;36.50
2543;DHT22;1116;51.502;7.414;2023-11-19T12:16:34;14.30;33.80
2543;DHT22;1116;51.502;7.414;2023-11-19T12:19:06;14.20;33.10
2543;DHT22;1116;51.502;7.414;2023-11-19T12:21:36;14.60;34.10
2543;DHT22;1116;51.502;7.414;2023-11-19T12:24:07;14.20;33.80
2543;DHT22;1116;51.502;7.414;2023-11-19T12:26:41;14.20;32.50
2543;DHT22;1116;51.502;7.414;2023-11-19T12:29:11;14.10;31.70
2543;DHT22;1116;51.502;7.414;2023-11-19T12:31:44;14.10;30.60
2543;DHT22;1116;51.502;7.414;2023-11-19T12:34:14;14.20;32.00
2543;DHT22;1116;51.502;7.414;2023-11-19T12:36:44;14.20;30.40
2543;DHT22;1116;51.502;7.414;2023-11-19T12:39:14;14.20;29.90
2543;DHT22;1116;51.502;7.414;2023-11-19T12:41:54;14.20;29.30
2543;DHT22;1116;51.502;7.414;2023-11-19T12:44:26;14.10;29.80
2543;DHT22;1116;51.502;7.414;2023-11-19T12:47:01;14.10;28.80
2543;DHT22;1116;51.502;7.414;2023-11-19T12:49:31;14.00;28.20
2543;DHT22;1116;51.502;7.414;2023-11-19T12:52:01;14.00;29.60
2543;DHT22;1116;51.502;7.414;2023-11-19T12:54:35;14.00;28.40
2543;DHT22;1116;51.502;7.414;2023-11-19T12:57:08;14.00;28.50
2543;DHT22;1116;51.502;7.414;2023-11-19T12:59:37;13.90;29.70
2543;DHT22;1116;51.502;7.414;2023-11-19T13:02:07;14.00;31.30
2543;DHT22;1116;51.502;7.414;2023-11-19T13:04:37;13.90;31.00
2543;DHT22;1116;51.502;7.414;2023-11-19T13:07:07;14.00;31.20
2543;DHT22;1116;51.502;7.414;2023-11-19T13:09:37;13.90;30.00
2543;DHT22;1116;51.502;7.414;2023-11-19T13:12:16;14.00;31.20
2543;DHT22;1116;51.502;7.414;2023-11-19T13:14:46;14.00;31.80
2543;DHT22;1116;51.502;7.414;2023-11-19T13:17:16;13.90;34.80
2543;DHT22;1116;51.502;7.414;2023-11-19T13:19:48;13.70;42.30
2543;DHT22;1116;51.502;7.414;2023-11-19T13:22:19;13.50;47.30
2543;DHT22;1116;51.502;7.414;2023-11-19T13:24:49;13.40;55.00
2543;DHT22;1116;51.502;7.414;2023-11-19T13:27:23;13.30;58.70
2543;DHT22;1116;51.502;7.414;2023-11-19T13:29:53;13.20;65.30
2543;DHT22;1116;51.502;7.414;2023-11-19T13:32:23;13.30;72.10
2543;DHT22;1116;51.502;7.414;2023-11-19T13:34:53;13.30;71.10
2543;DHT22;1116;51.502;7.414;2023-11-19T13:37:23;13.30;68.70
2543;DHT22;1116;51.502;7.414;2023-11-19T13:39:53;13.20;67.10
2543;DHT22;1116;51.502;7.414;2023-11-19T13:42:25;13.20;65.40
2543;DHT22;1116;51.502;7.414;2023-11-19T13:44:55;13.50;64.50
2543;DHT22;1116;51.502;7.414;2023-11-19T13:47:26;13.30;68.60
2543;DHT22;1116;51.502;7.414;2023-11-19T13:49:55;13.40;65.40
2543;DHT22;1116;51.502;7.414;2023-11-19T13:52:25;13.40;60.20
2543;DHT22;1116;51.502;7.414;2023-11-19T13:54:55;13.30;55.50
2543;DHT22;1116;51.502;7.414;2023-11-19T13:57:30;13.20;54.30
2543;DHT22;1116;51.502;7.414;2023-11-19T14:00:01;13.30;57.60
2543;DHT22;1116;51.502;7.414;2023-11-19T14:02:33;13.30;59.60
2543;DHT22;1116;51.502;7.414;2023-11-19T14:05:04;13.30;56.10
2543;DHT22;1116;51.502;7.414;2023-11-19T14:07:34;13.30;56.50
2543;DHT22;1116;51.502;7.414;2023-11-19T14:10:05;13.20;58.40
2543;DHT22;1116;51.502;7.414;2023-11-19T14:12:39;13.20;55.80
2543;DHT22;1116;51.502;7.414;2023-11-19T14:15:10;13.40;56.40
2543;DHT22;1116;51.502;7.414;2023-11-19T14:17:40;13.40;55.30
2543;DHT22;1116;51.502;7.414;2023-11-19T14:20:11;13.50;55.40
2543;DHT22;1116;51.502;7.414;2023-11-19T14:22:44;13.50;55.40
2543;DHT22;1116;51.502;7.414;2023-11-19T14:25:15;13.50;53.30
2543;DHT22;1116;51.502;7.414;2023-11-19T14:27:48;13.50;52.90
2543;DHT22;1116;51.502;7.414;2023-11-19T14:30:18;13.50;51.60
2543;DHT22;1116;51.502;7.414;2023-11-19T14:32:48;13.40;50.00
2543;DHT22;1116;51.502;7.414;2023-11-19T14:35:18;13.40;48.90
2543;DHT22;1116;51.502;7.414;2023-11-19T14:37:48;13.40;50.30
2543;DHT22;1116;51.502;7.414;2023-11-19T14:40:18;13.30;48.90
2543;DHT22;1116;51.502;7.414;2023-11-19T14:42:51;13.30;50.70
2543;DHT22;1116;51.502;7.414;2023-11-19T14:45:24;13.40;50.10
2543;DHT22;1116;51.502;7.414;2023-11-19T14:47:56;13.30;50.10
2543;DHT22;1116;51.502;7.414;2023-11-19T14:50:26;13.20;52.10
2543;DHT22;1116;51.502;7.414;2023-11-19T14:52:56;13.10;58.70
2543;DHT22;1116;51.502;7.414;2023-11-19T14:55:26;13.10;59.40
2543;DHT22;1116;51.502;7.414;2023-11-19T14:57:58;13.10;63.80
2543;DHT22;1116;51.502;7.414;2023-11-19T15:00:36;13.10;65.10
2543;DHT22;1116;51.502;7.414;2023-11-19T15:03:09;13.10;66.20
2543;DHT22;1116;51.502;7.414;2023-11-19T15:05:39;13.00;67.70
2543;DHT22;1116;51.502;7.414;2023-11-19T15:08:09;13.00;65.10
2543;DHT22;1116;51.502;7.414;2023-11-19T15:10:39;13.00;65.60
2543;DHT22;1116;51.502;7.414;2023-11-19T15:13:11;13.00;64.40
2543;DHT22;1116;51.502;7.414;2023-11-19T15:15:41;13.00;65.60
2543;DHT22;1116;51.502;7.414;2023-11-19T15:18:11;13.40;67.60
2543;DHT22;1116;51.502;7.414;2023-11-19T15:20:41;12.80;66.70
2543;DHT22;1116;51.502;7.414;2023-11-19T15:23:14;12.80;66.80
2543;DHT22;1116;51.502;7.414;2023-11-19T15:25:44;12.80;65.90
2543;DHT22;1116;51.502;7.414;2023-11-19T15:28:16;12.80;67.20
2543;DHT22;1116;51.502;7.414;2023-11-19T15:30:46;12.70;68.30
2543;DHT22;1116;51.502;7.414;2023-11-19T15:33:16;12.70;67.20
2543;DHT22;1116;51.502;7.414;2023-11-19T15:35:46;12.70;66.40
2543;DHT22;1116;51.502;7.414;2023-11-19T15:38:16;12.80;69.70
2543;DHT22;1116;51.502;7.414;2023-11-19T15:40:46;12.70;66.90
2543;DHT22;1116;51.502;7.414;2023-11-19T15:43:18;12.60;70.00
2543;DHT22;1116;51.502;7.414;2023-11-19T15:45:49;12.70;70.70
2543;DHT22;1116;51.502;7.414;2023-11-19T15:48:19;12.70;69.90
2543;DHT22;1116;51.502;7.414;2023-11-19T15:50:49;12.60;69.80
2543;DHT22;1116;51.502;7.414;2023-11-19T15:53:19;12.60;75.20
2543;DHT22;1116;51.502;7.414;2023-11-19T15:55:49;12.60;82.20
2543;DHT22;1116;51.502;7.414;2023-11-19T15:58:22;12.60;88.70
2543;DHT22;1116;51.502;7.414;2023-11-19T16:00:52;12.50;90.60
2543;DHT22;1116;51.502;7.414;2023-11-19T16:03:22;12.50;92.20
2543;DHT22;1116;51.502;7.414;2023-11-19T16:05:53;12.50;96.00
2543;DHT22;1116;51.502;7.414;2023-11-19T16:08:35;12.40;98.00
2543;DHT22;1116;51.502;7.414;2023-11-19T16:11:06;12.40;97.50
2543;DHT22;1116;51.502;7.414;2023-11-19T16:13:39;12.40;99.20
2543;DHT22;1116;51.502;7.414;2023-11-19T16:16:09;12.30;99.90
2543;DHT22;1116;51.502;7.414;2023-11-19T16:18:39;12.40;99.90
2543;DHT22;1116;51.502;7.414;2023-11-19T16:21:09;12.30;99.90
2543;DHT22;1116;51.502;7.414;2023-11-19T16:23:39;12.30;99.90
2543;DHT22;1116;51.502;7.414;2023-11-19T16:26:09;12.30;99.90
2543;DHT22;1116;51.502;7.414;2023-11-19T16:28:46;12.30;99.90
2543;DHT22;1116;51.502;7.414;2023-11-19T16:31:16;12.30;99.90
2543;DHT22;1116;51.502;7.414;2023-11-19T16:33:46;12.50;99.90
2543;DHT22;1116;51.502;7.414;2023-11-19T16:36:16;12.30;99.90
2543;DHT22;1116;51.502;7.414;2023-11-19T16:38:46;12.40;99.90
2543;DHT22;1116;51.502;7.414;2023-11-19T16:41:18;12.40;99.90